Time;durP1;ratioP1;P1;durP2;ratioP2;P2;SDS_P1;SDS_P2;PMS_P1;PMS_P2;Temp;Humidity;BMP_temperature;BMP_pressure;BME280_temperature;BME280_humidity;BME280_pressure;Samples;Min_cycle;Max_cycle;Signal;HPM_P1;HPM_P2
2021/04/23 00:01:36;;;;;;;10.63;4.40;;;7.50;99.90;;;;;;5095798;28;20167;-68
2021/04/23 00:04:05;;;;;;;11.23;4.53;;;7.40;99.90;;;;;;5095791;28;20624;-68
2021/04/23 00:06:37;;;;;;;16.75;3.60;;;7.50;99.90;;;;;;5095625;28;20531;-68
2021/04/23 00:09:20;;;;;;;9.48;4.30;;;7.60;99.90;;;;;;5095689;28;20179;-68
2021/04/23 00:11:51;;;;;;;10.63;3.47;;;7.50;99.90;;;;;;5095780;28;20289;-68
2021/04/23 00:14:20;;;;;;;12.27;4.97;;;7.30;99.90;;;;;;5095734;28;20509;-68
2021/04/23 00:16:46;;;;;;;7.13;3.65;;;7.00;99.90;;;;;;5095464;28;20167;-68
2021/04/23 00:19:15;;;;;;;7.97;3.73;;;7.00;99.90;;;;;;5095467;28;20194;-68
2021/04/23 00:21:41;;;;;;;10.13;4.55;;;6.90;99.90;;;;;;5095325;28;20397;-67
2021/04/23 00:24:08;;;;;;;7.85;3.58;;;7.10;99.90;;;;;;5095445;28;20187;-68
2021/04/23 00:26:33;;;;;;;9.48;3.78;;;7.20;99.90;;;;;;5095235;28;20213;-68
2021/04/23 00:28:59;;;;;;;4.50;3.20;;;7.00;99.90;;;;;;5095327;28;20531;-68
2021/04/23 00:31:25;;;;;;;11.57;3.80;;;7.00;99.90;;;;;;5095161;28;20164;-68
2021/04/23 00:33:51;;;;;;;11.70;3.83;;;6.90;99.90;;;;;;5094966;28;20195;-68
2021/04/23 00:36:17;;;;;;;5.83;3.50;;;6.90;99.90;;;;;;5095351;28;20686;-67
2021/04/23 00:38:43;;;;;;;7.43;3.45;;;6.80;99.90;;;;;;5095353;28;20413;-68
2021/04/23 00:41:15;;;;;;;10.00;4.57;;;6.80;99.90;;;;;;5095300;28;20168;-68
2021/04/23 00:43:44;;;;;;;7.90;3.63;;;6.70;99.90;;;;;;5095474;28;20429;-68
2021/04/23 00:46:12;;;;;;;14.73;3.50;;;6.60;99.90;;;;;;5094879;28;20191;-67
2021/04/23 00:48:45;;;;;;;8.85;3.53;;;6.50;99.90;;;;;;5094802;28;20198;-68
2021/04/23 00:51:19;;;;;;;8.07;4.55;;;6.50;99.90;;;;;;5094843;28;20292;-68
2021/04/23 00:53:47;;;;;;;11.50;3.90;;;6.50;99.90;;;;;;5094704;28;20195;-68
2021/04/23 00:56:16;;;;;;;9.13;3.90;;;6.30;99.90;;;;;;5094682;28;20159;-68
2021/04/23 00:58:43;;;;;;;10.05;3.85;;;6.40;99.90;;;;;;5094641;28;20244;-67
2021/04/23 01:01:17;;;;;;;10.13;4.22;;;6.40;99.90;;;;;;5094827;28;20190;-68
2021/04/23 01:03:43;;;;;;;8.02;3.53;;;6.30;99.90;;;;;;5094569;28;20187;-67
2021/04/23 01:06:17;;;;;;;9.43;4.13;;;6.10;99.90;;;;;;5094610;28;20168;-68
2021/04/23 01:08:44;;;;;;;6.00;3.80;;;6.10;99.90;;;;;;5094569;28;20186;-67
2021/04/23 01:11:11;;;;;;;10.18;4.13;;;5.80;99.90;;;;;;5093715;28;20175;-68
2021/04/23 01:13:37;;;;;;;8.02;4.28;;;5.70;99.90;;;;;;5094393;28;20242;-68
2021/04/23 01:16:08;;;;;;;5.57;3.70;;;5.80;99.90;;;;;;5094752;28;20159;-68
2021/04/23 01:18:34;;;;;;;14.27;4.40;;;5.50;99.90;;;;;;5094318;28;20981;-68
2021/04/23 01:21:06;;;;;;;9.60;3.72;;;5.50;1.00;;;;;;5094788;28;20176;-68
2021/04/23 01:23:33;;;;;;;10.82;3.75;;;5.50;1.00;;;;;;5094208;28;20281;-68
2021/04/23 01:25:58;;;;;;;13.30;4.28;;;5.60;1.00;;;;;;5094529;28;20640;-68
2021/04/23 01:28:24;;;;;;;9.70;4.10;;;5.70;1.00;;;;;;5094491;28;20220;-68
2021/04/23 01:30:50;;;;;;;8.87;3.63;;;5.60;99.90;;;;;;5095062;28;20499;-68
2021/04/23 01:33:16;;;;;;;8.63;3.63;;;5.50;1.00;;;;;;5094212;28;20977;-68
2021/04/23 01:35:42;;;;;;;19.95;4.18;;;5.20;1.00;;;;;;5094086;28;20167;-68
2021/04/23 01:38:08;;;;;;;6.10;3.47;;;5.20;1.00;;;;;;5094245;28;20258;-68
2021/04/23 01:40:34;;;;;;;12.10;4.18;;;5.20;1.00;;;;;;5093800;28;20178;-68
2021/04/23 01:42:59;;;;;;;9.20;3.90;;;5.40;1.00;;;;;;5093951;28;20171;-68
2021/04/23 01:45:25;;;;;;;10.57;3.47;;;5.50;1.00;;;;;;5094580;28;20178;-67
2021/04/23 01:47:51;;;;;;;7.43;4.60;;;5.40;1.00;;;;;;5093710;28;20163;-68
2021/04/23 01:50:20;;;;;;;8.43;3.53;;;5.30;1.00;;;;;;5093695;28;20164;-67
2021/04/23 01:52:48;;;;;;;8.73;4.05;;;5.30;1.00;;;;;;5093474;28;20241;-68
2021/04/23 01:55:20;;;;;;;7.45;3.28;;;5.40;1.00;;;;;;5094201;28;20175;-68
2021/04/23 01:57:46;;;;;;;16.52;4.13;;;5.40;1.00;;;;;;5093559;28;20147;-67
2021/04/23 02:00:23;;;;;;;11.35;5.20;;;5.30;1.00;;;;;;5093451;28;20292;-68
2021/04/23 02:02:53;;;;;;;6.97;4.03;;;5.20;1.00;;;;;;5093581;28;20163;-67
2021/04/23 02:05:20;;;;;;;8.80;4.78;;;5.20;1.00;;;;;;5094242;28;20151;-68
2021/04/23 02:07:46;;;;;;;7.65;2.92;;;5.20;1.00;;;;;;5093375;28;20589;-68
2021/04/23 02:10:16;;;;;;;6.50;4.20;;;5.20;1.00;;;;;;5093178;28;20187;-68
2021/04/23 02:12:43;;;;;;;9.38;4.15;;;5.10;1.00;;;;;;5093250;28;20584;-68
2021/04/23 02:15:11;;;;;;;9.68;4.30;;;5.20;1.00;;;;;;5093454;28;20324;-68
2021/04/23 02:17:37;;;;;;;6.95;3.50;;;4.90;1.00;;;;;;5093153;28;20195;-68
2021/04/23 02:20:07;;;;;;;8.55;4.60;;;4.60;1.00;;;;;;5093083;28;20178;-68
2021/04/23 02:22:33;;;;;;;9.88;3.88;;;4.80;1.00;;;;;;5093001;28;20264;-68
2021/04/23 02:24:58;;;;;;;9.20;4.27;;;4.70;1.00;;;;;;5093280;28;20291;-68
2021/04/23 02:27:24;;;;;;;6.70;3.70;;;4.50;1.00;;;;;;5093020;28;20168;-68
2021/04/23 02:29:49;;;;;;;8.47;3.90;;;4.30;1.00;;;;;;5093010;28;20255;-68
2021/04/23 02:32:15;;;;;;;13.50;4.13;;;4.40;1.00;;;;;;5092898;28;20243;-67
2021/04/23 02:34:41;;;;;;;7.20;4.57;;;4.60;1.00;;;;;;5092868;28;20191;-68
2021/04/23 02:37:06;;;;;;;8.07;4.60;;;4.50;1.00;;;;;;5092880;28;20221;-68
2021/04/23 02:39:32;;;;;;;14.33;3.70;;;4.00;1.00;;;;;;5092851;28;20176;-68
2021/04/23 02:41:57;;;;;;;14.03;4.63;;;4.00;1.00;;;;;;5093038;28;20529;-68
2021/04/23 02:44:25;;;;;;;7.30;3.50;;;3.90;1.00;;;;;;5092732;28;20237;-68
2021/04/23 02:46:52;;;;;;;10.38;4.93;;;3.90;1.00;;;;;;5093021;28;20258;-68
2021/04/23 02:49:18;;;;;;;21.65;5.50;;;3.90;1.00;;;;;;5093021;28;20677;-67
2021/04/23 02:51:47;;;;;;;9.77;4.60;;;4.00;1.00;;;;;;5092614;28;20251;-67
2021/04/23 02:54:13;;;;;;;13.48;5.22;;;3.90;1.00;;;;;;5092651;28;20176;-68
2021/04/23 02:56:39;;;;;;;9.63;4.22;;;4.30;1.00;;;;;;5092922;28;20183;-68
2021/04/23 02:59:06;;;;;;;9.05;3.92;;;4.30;1.00;;;;;;5093678;28;20182;-67
2021/04/23 03:01:35;;;;;;;7.63;4.85;;;4.00;1.00;;;;;;5092666;28;20163;-67
2021/04/23 03:04:02;;;;;;;11.80;4.68;;;3.80;1.00;;;;;;5092505;28;20552;-67
2021/04/23 03:06:28;;;;;;;11.63;4.68;;;3.80;1.00;;;;;;5092517;28;20717;-68
2021/04/23 03:08:54;;;;;;;9.00;4.30;;;4.00;1.00;;;;;;5092441;28;20187;-67
2021/04/23 03:11:23;;;;;;;9.60;5.80;;;4.10;1.00;;;;;;5092539;28;20168;-68
2021/04/23 03:13:52;;;;;;;11.65;4.22;;;4.00;1.00;;;;;;5091311;28;20687;-68
2021/04/23 03:16:19;;;;;;;11.75;5.20;;;4.00;1.00;;;;;;5092539;28;20174;-68
2021/04/23 03:18:46;;;;;;;8.60;4.50;;;3.70;1.00;;;;;;5092701;28;20179;-67
2021/04/23 03:21:15;;;;;;;12.88;5.63;;;3.60;1.00;;;;;;5092417;28;20659;-67
2021/04/23 03:23:41;;;;;;;16.50;5.85;;;3.70;1.00;;;;;;5092318;28;20576;-67
2021/04/23 03:26:08;;;;;;;8.30;4.95;;;3.80;1.00;;;;;;5092521;28;20273;-68
2021/04/23 03:28:35;;;;;;;8.50;6.38;;;3.80;1.00;;;;;;5092311;28;20604;-68
2021/04/23 03:31:02;;;;;;;12.15;6.65;;;3.70;1.00;;;;;;5092411;28;20179;-68
2021/04/23 03:33:31;;;;;;;11.27;5.70;;;3.60;1.00;;;;;;5093523;28;20199;-67
2021/04/23 03:35:58;;;;;;;14.13;6.38;;;3.40;1.00;;;;;;5096675;28;20164;-67
2021/04/23 03:38:27;;;;;;;9.55;5.68;;;3.40;1.00;;;;;;5096121;28;20167;-68
2021/04/23 03:40:54;;;;;;;10.60;6.03;;;3.60;1.00;;;;;;5096353;28;20166;-68
2021/04/23 03:43:20;;;;;;;12.43;5.03;;;3.50;1.00;;;;;;5096143;28;20191;-68
2021/04/23 03:45:48;;;;;;;10.53;4.90;;;3.70;1.00;;;;;;5095950;28;20200;-67
2021/04/23 03:48:13;;;;;;;13.73;5.50;;;3.70;1.00;;;;;;5095891;28;20159;-68
2021/04/23 03:50:40;;;;;;;14.30;6.60;;;3.60;1.00;;;;;;5096073;28;20168;-68
2021/04/23 03:53:09;;;;;;;10.82;5.13;;;3.50;1.00;;;;;;5094388;28;20218;-68
2021/04/23 03:55:39;;;;;;;13.50;5.35;;;3.40;1.00;;;;;;5095850;28;20164;-68
2021/04/23 03:58:05;;;;;;;14.00;5.57;;;3.50;1.00;;;;;;5095971;28;20528;-68
2021/04/23 04:00:38;;;;;;;13.75;7.68;;;3.20;1.00;;;;;;5095631;28;20209;-68
2021/04/23 04:03:05;;;;;;;13.93;6.88;;;3.20;1.00;;;;;;5095494;28;20716;-68
2021/04/23 04:05:31;;;;;;;11.45;5.43;;;3.30;1.00;;;;;;5095844;28;20673;-68
2021/04/23 04:07:57;;;;;;;16.00;6.78;;;3.00;1.00;;;;;;5095337;28;20164;-68
2021/04/23 04:10:22;;;;;;;11.90;7.00;;;2.90;1.00;;;;;;5095530;28;20659;-68
2021/04/23 04:12:48;;;;;;;9.37;5.30;;;2.90;1.00;;;;;;5095569;28;20187;-68
2021/04/23 04:15:15;;;;;;;9.97;5.20;;;3.00;1.00;;;;;;5095413;28;20171;-68
2021/04/23 04:17:41;;;;;;;10.80;5.25;;;2.90;1.00;;;;;;5095318;28;20159;-68
2021/04/23 04:20:09;;;;;;;10.23;6.20;;;3.00;1.00;;;;;;5095264;28;20197;-68
2021/04/23 04:22:35;;;;;;;14.32;5.88;;;2.90;1.00;;;;;;5095285;28;20413;-68
2021/04/23 04:25:01;;;;;;;11.43;5.57;;;2.90;1.00;;;;;;5095403;28;20187;-68
2021/04/23 04:27:26;;;;;;;9.50;4.47;;;2.80;1.00;;;;;;5095391;28;20433;-68
2021/04/23 04:29:52;;;;;;;13.67;5.90;;;3.20;1.00;;;;;;5095458;28;20451;-68
2021/04/23 04:32:18;;;;;;;10.40;5.53;;;3.10;1.00;;;;;;5095008;28;20191;-68
2021/04/23 04:34:45;;;;;;;15.30;6.40;;;3.10;1.00;;;;;;5095014;28;20237;-68
2021/04/23 04:37:10;;;;;;;15.35;5.68;;;3.30;1.00;;;;;;5095300;28;20493;-68
2021/04/23 04:39:36;;;;;;;11.03;5.33;;;3.20;1.00;;;;;;5095291;28;20163;-68
2021/04/23 04:42:02;;;;;;;13.10;6.20;;;3.00;1.00;;;;;;5095170;28;20395;-68
2021/04/23 04:44:28;;;;;;;11.77;4.77;;;3.00;1.00;;;;;;5093979;28;20274;-68
2021/04/23 04:46:54;;;;;;;8.68;4.82;;;3.20;1.00;;;;;;5094506;28;20409;-68
2021/04/23 04:49:20;;;;;;;12.47;5.63;;;3.10;1.00;;;;;;5094857;28;20163;-68
2021/04/23 04:51:45;;;;;;;11.90;7.20;;;2.90;1.00;;;;;;5094613;28;20195;-68
2021/04/23 04:54:11;;;;;;;11.20;5.77;;;3.00;1.00;;;;;;5093346;28;20187;-68
2021/04/23 04:56:36;;;;;;;7.30;5.63;;;3.00;1.00;;;;;;5094495;28;20701;-68
2021/04/23 04:59:02;;;;;;;14.80;7.10;;;2.90;1.00;;;;;;5094425;28;20194;-68
2021/04/23 05:01:28;;;;;;;14.70;6.20;;;3.00;1.00;;;;;;5094386;28;20531;-68
2021/04/23 05:03:53;;;;;;;10.77;6.93;;;3.00;1.00;;;;;;5094594;28;20457;-68
2021/04/23 05:06:19;;;;;;;10.33;5.00;;;3.20;1.00;;;;;;5093106;28;20237;-68
2021/04/23 05:08:46;;;;;;;14.33;6.53;;;3.30;1.00;;;;;;5094235;28;20179;-68
2021/04/23 05:11:12;;;;;;;15.38;5.90;;;3.30;1.00;;;;;;5094453;28;20700;-68
2021/04/23 05:13:37;;;;;;;14.00;6.10;;;3.10;1.00;;;;;;5094219;28;20290;-68
2021/04/23 05:16:03;;;;;;;11.97;5.40;;;3.30;1.00;;;;;;5094264;28;20906;-68
2021/04/23 05:18:29;;;;;;;23.50;6.93;;;3.70;1.00;;;;;;5094118;28;20651;-68
2021/04/23 05:20:54;;;;;;;9.90;5.83;;;3.90;1.00;;;;;;5094576;28;20457;-68
2021/04/23 05:23:20;;;;;;;18.37;7.10;;;4.00;1.00;;;;;;5094216;28;20195;-68
2021/04/23 05:25:45;;;;;;;19.13;8.03;;;3.70;1.00;;;;;;5094275;28;20179;-68
2021/04/23 05:28:11;;;;;;;9.47;6.00;;;3.90;1.00;;;;;;5093956;28;20171;-68
2021/04/23 05:30:38;;;;;;;16.33;6.80;;;3.80;1.00;;;;;;5093887;28;20210;-68
2021/04/23 05:33:06;;;;;;;15.15;5.97;;;3.70;1.00;;;;;;5093540;28;20813;-68
2021/04/23 05:35:32;;;;;;;17.25;8.38;;;3.80;1.00;;;;;;5093739;28;20532;-68
2021/04/23 05:37:58;;;;;;;19.65;7.68;;;3.90;1.00;;;;;;5093781;28;20171;-68
2021/04/23 05:40:34;;;;;;;15.95;7.15;;;4.10;1.00;;;;;;5093482;28;20574;-68
2021/04/23 05:43:00;;;;;;;21.52;7.43;;;4.40;1.00;;;;;;5093408;28;20163;-69
2021/04/23 05:45:27;;;;;;;20.85;7.00;;;4.60;1.00;;;;;;5093636;28;20164;-69
2021/04/23 05:47:53;;;;;;;13.20;6.65;;;4.60;1.00;;;;;;5093316;28;20201;-69
2021/04/23 05:50:19;;;;;;;13.80;6.95;;;4.50;1.00;;;;;;5093604;28;20176;-69
2021/04/23 05:52:46;;;;;;;10.80;6.97;;;4.50;1.00;;;;;;5093067;28;20283;-68
2021/04/23 05:55:15;;;;;;;14.70;6.90;;;4.60;1.00;;;;;;5093376;28;20171;-69
2021/04/23 05:57:41;;;;;;;17.58;6.60;;;4.70;1.00;;;;;;5093220;28;20195;-69
2021/04/23 06:00:10;;;;;;;14.45;6.97;;;5.00;1.00;;;;;;5093313;28;20171;-69
2021/04/23 06:02:36;;;;;;;18.50;7.03;;;5.20;1.00;;;;;;5093392;28;20171;-69
2021/04/23 06:05:03;;;;;;;14.35;8.13;;;5.40;1.00;;;;;;5093191;28;20187;-69
2021/04/23 06:07:29;;;;;;;15.65;7.28;;;5.70;1.00;;;;;;5093067;28;20168;-69
2021/04/23 06:09:54;;;;;;;14.57;8.00;;;5.70;1.00;;;;;;5093189;28;20602;-68
2021/04/23 06:12:20;;;;;;;14.50;7.03;;;5.50;1.00;;;;;;5093133;28;20605;-69
2021/04/23 06:14:45;;;;;;;20.17;7.63;;;5.40;1.00;;;;;;5093368;28;20671;-68
2021/04/23 06:17:11;;;;;;;16.70;7.47;;;5.40;1.00;;;;;;5093113;28;20179;-69
2021/04/23 06:19:37;;;;;;;16.00;8.47;;;5.60;1.00;;;;;;5093412;28;20175;-68
2021/04/23 06:22:03;;;;;;;23.70;8.23;;;5.90;1.00;;;;;;5092936;28;20175;-69
2021/04/23 06:24:28;;;;;;;18.30;9.25;;;5.90;1.00;;;;;;5093131;28;20602;-68
2021/04/23 06:26:54;;;;;;;17.63;8.37;;;6.10;1.00;;;;;;5092921;28;20168;-69
2021/04/23 06:29:19;;;;;;;10.97;6.30;;;6.20;1.00;;;;;;5093268;28;20163;-69
2021/04/23 06:31:45;;;;;;;17.07;8.80;;;6.30;1.00;;;;;;5093029;28;20175;-69
2021/04/23 06:34:11;;;;;;;15.27;6.83;;;6.40;1.00;;;;;;5093739;28;20193;-69
2021/04/23 06:36:38;;;;;;;17.40;6.50;;;6.70;1.00;;;;;;5093338;28;20194;-69
2021/04/23 06:39:11;;;;;;;24.10;7.35;;;6.60;1.00;;;;;;5092944;28;20172;-69
2021/04/23 06:41:36;;;;;;;17.65;7.90;;;6.60;99.90;;;;;;5092905;28;20160;-68
2021/04/23 06:44:02;;;;;;;24.60;8.47;;;6.80;1.00;;;;;;5093295;28;20191;-68
2021/04/23 06:46:29;;;;;;;27.00;7.40;;;6.90;99.90;;;;;;5092700;28;20178;-67
2021/04/23 06:48:54;;;;;;;14.20;8.63;;;6.90;1.00;;;;;;5092754;28;20261;-68
2021/04/23 06:51:20;;;;;;;28.77;7.00;;;6.90;99.90;;;;;;5091293;28;20708;-68
2021/04/23 06:53:45;;;;;;;14.40;6.73;;;6.90;1.00;;;;;;5092427;28;20743;-68
2021/04/23 06:56:11;;;;;;;15.53;6.73;;;7.40;99.90;;;;;;5092302;28;20164;-67
2021/04/23 06:58:36;;;;;;;11.73;6.00;;;7.50;99.90;;;;;;5092415;28;20579;-68
2021/04/23 07:01:03;;;;;;;21.53;7.27;;;7.50;99.90;;;;;;5092388;28;20163;-68
2021/04/23 07:03:29;;;;;;;17.42;6.82;;;7.50;99.90;;;;;;5092401;28;20195;-68
2021/04/23 07:05:55;;;;;;;20.38;6.22;;;7.80;99.90;;;;;;5091299;28;20315;-68
2021/04/23 07:08:21;;;;;;;15.87;5.70;;;8.00;99.90;;;;;;5093801;28;20187;-68
2021/04/23 07:10:46;;;;;;;12.30;6.60;;;7.90;99.90;;;;;;5096916;28;20417;-68
2021/04/23 07:13:13;;;;;;;11.13;5.90;;;7.50;99.90;;;;;;5096527;28;20203;-68
2021/04/23 07:15:39;;;;;;;14.25;5.88;;;7.80;99.90;;;;;;5096838;28;20159;-68
2021/04/23 07:18:06;;;;;;;12.68;6.28;;;8.00;99.90;;;;;;5096903;28;20532;-68
2021/04/23 07:20:31;;;;;;;10.07;5.00;;;8.20;99.90;;;;;;5096338;28;20166;-69
2021/04/23 07:22:58;;;;;;;10.40;4.57;;;8.40;99.90;;;;;;5096615;28;20168;-69
2021/04/23 07:25:23;;;;;;;12.20;4.93;;;8.30;99.90;;;;;;5096236;28;20187;-69
2021/04/23 07:27:49;;;;;;;9.57;5.70;;;8.40;99.90;;;;;;5096603;28;20176;-69
2021/04/23 07:30:20;;;;;;;15.83;5.57;;;8.20;99.90;;;;;;5096399;28;20174;-69
2021/04/23 07:32:47;;;;;;;13.57;4.90;;;8.20;99.90;;;;;;5096364;28;20213;-69
2021/04/23 07:35:14;;;;;;;12.80;5.95;;;8.40;99.90;;;;;;5096197;28;20575;-69
2021/04/23 07:37:40;;;;;;;10.52;5.55;;;8.10;99.90;;;;;;5096367;28;20159;-69
2021/04/23 07:40:08;;;;;;;27.77;6.93;;;8.40;99.90;;;;;;5096144;28;20161;-71
2021/04/23 07:42:33;;;;;;;8.73;5.20;;;8.40;99.90;;;;;;5095055;28;20710;-69
2021/04/23 07:45:00;;;;;;;8.00;4.67;;;9.00;99.90;;;;;;5093694;28;20199;-70
2021/04/23 07:47:25;;;;;;;18.30;5.90;;;9.00;99.90;;;;;;5095906;28;20179;-70
2021/04/23 07:49:51;;;;;;;11.93;5.00;;;9.00;99.90;;;;;;5095864;28;20164;-70
2021/04/23 07:52:16;;;;;;;7.30;4.37;;;9.20;99.90;;;;;;5095782;28;20202;-70
2021/04/23 07:54:42;;;;;;;13.60;5.23;;;9.10;99.90;;;;;;5094672;28;20195;-69
2021/04/23 07:57:09;;;;;;;8.83;4.70;;;9.10;99.90;;;;;;5096448;28;20184;-70
2021/04/23 07:59:36;;;;;;;10.50;5.10;;;9.20;99.90;;;;;;5095298;28;20160;-69
2021/04/23 08:02:03;;;;;;;7.93;5.07;;;9.40;99.90;;;;;;5095648;28;20762;-69
2021/04/23 08:04:29;;;;;;;9.60;5.10;;;9.30;99.90;;;;;;5095759;28;20425;-69
2021/04/23 08:06:55;;;;;;;8.73;5.20;;;9.40;99.90;;;;;;5095520;28;20405;-69
2021/04/23 08:09:20;;;;;;;9.83;4.50;;;9.50;99.90;;;;;;5095571;28;21030;-69
2021/04/23 08:11:46;;;;;;;9.80;4.93;;;9.40;99.90;;;;;;5095517;28;20405;-69
2021/04/23 08:14:11;;;;;;;14.20;4.37;;;9.60;99.90;;;;;;5095565;28;20667;-69
2021/04/23 08:16:37;;;;;;;9.57;4.90;;;9.90;99.90;;;;;;5095896;28;20166;-69
2021/04/23 08:19:03;;;;;;;10.03;4.27;;;9.60;99.90;;;;;;5095219;28;20171;-69
2021/04/23 08:21:28;;;;;;;10.87;4.63;;;10.00;99.90;;;;;;5095640;28;20164;-69
2021/04/23 08:23:54;;;;;;;10.70;4.70;;;10.20;99.90;;;;;;5095218;28;20191;-69
2021/04/23 08:26:22;;;;;;;16.43;5.47;;;9.60;99.90;;;;;;5095492;28;20220;-69
2021/04/23 08:28:47;;;;;;;8.60;5.00;;;10.00;99.90;;;;;;5095572;28;20243;-69
2021/04/23 08:31:13;;;;;;;10.30;5.23;;;10.30;99.90;;;;;;5095251;28;20970;-70
2021/04/23 08:33:38;;;;;;;10.90;5.07;;;10.30;99.90;;;;;;5095216;28;20699;-70
2021/04/23 08:36:04;;;;;;;13.70;5.87;;;10.00;99.90;;;;;;5095363;28;20174;-69
2021/04/23 08:38:30;;;;;;;9.13;4.73;;;9.50;99.90;;;;;;5095701;28;20286;-69
2021/04/23 08:40:57;;;;;;;5.50;3.73;;;10.10;99.90;;;;;;5095480;28;20398;-69
2021/04/23 08:43:25;;;;;;;7.53;4.70;;;10.10;99.90;;;;;;5094712;28;20324;-70
2021/04/23 08:45:51;;;;;;;7.43;4.27;;;10.40;99.90;;;;;;5095239;28;20796;-70
2021/04/23 08:48:17;;;;;;;7.57;4.50;;;10.60;99.90;;;;;;5094911;28;20442;-70
2021/04/23 08:50:44;;;;;;;16.00;4.93;;;10.70;99.90;;;;;;5095166;28;20747;-69
2021/04/23 08:53:11;;;;;;;10.10;4.00;;;11.10;99.90;;;;;;5093474;28;20230;-70
2021/04/23 08:55:36;;;;;;;12.87;5.23;;;11.10;99.90;;;;;;5093953;28;20406;-70
2021/04/23 08:58:03;;;;;;;6.80;4.10;;;11.00;99.90;;;;;;5094734;28;20407;-70
2021/04/23 09:00:29;;;;;;;9.43;4.83;;;11.40;99.90;;;;;;5094515;28;20176;-70
2021/04/23 09:02:55;;;;;;;11.27;4.60;;;11.40;99.90;;;;;;5094460;28;20444;-69
2021/04/23 09:05:20;;;;;;;10.37;4.90;;;11.20;99.90;;;;;;5094568;28;20409;-70
2021/04/23 09:08:04;;;;;;;12.37;4.43;;;10.90;99.90;;;;;;5094429;28;20701;-69
2021/04/23 09:10:31;;;;;;;8.63;4.77;;;11.10;99.90;;;;;;5094573;28;20647;-70
2021/04/23 09:13:14;;;;;;;12.43;4.60;;;11.40;99.90;;;;;;5094365;28;20449;-69
2021/04/23 09:15:43;;;;;;;12.13;5.30;;;11.10;99.90;;;;;;5094302;28;20412;-70
2021/04/23 09:18:15;;;;;;;7.80;4.37;;;11.70;99.90;;;;;;5094376;28;20481;-69
2021/04/23 09:20:46;;;;;;;10.73;5.07;;;11.40;99.90;;;;;;5094439;28;20927;-69
2021/04/23 09:23:22;;;;;;;9.00;5.17;;;11.80;99.90;;;;;;5094711;28;20972;-70
2021/04/23 09:25:50;;;;;;;8.93;4.20;;;12.20;99.90;;;;;;5094003;28;20402;-70
2021/04/23 09:28:36;;;;;;;9.87;4.97;;;12.00;99.90;;;;;;5093944;28;20771;-70
2021/04/23 09:31:25;;;;;;;12.23;4.37;;;11.90;99.90;;;;;;5093346;28;20467;-69
2021/04/23 09:33:53;;;;;;;5.67;3.60;;;12.10;99.90;;;;;;5093966;28;20855;-69
2021/04/23 09:36:31;;;;;;;5.97;4.10;;;12.50;99.90;;;;;;5094000;28;20803;-70
2021/04/23 09:39:04;;;;;;;8.20;4.27;;;12.20;99.90;;;;;;5093646;28;20838;-69
2021/04/23 09:41:29;;;;;;;8.13;4.33;;;12.10;99.90;;;;;;5093509;28;20404;-70
2021/04/23 09:43:55;;;;;;;9.60;5.17;;;12.60;99.90;;;;;;5093374;28;20429;-70
2021/04/23 09:46:38;;;;;;;6.20;4.37;;;12.60;99.90;;;;;;5093218;28;20513;-70
2021/04/23 09:49:16;;;;;;;8.40;4.03;;;12.70;99.90;;;;;;5092196;28;20193;-70
2021/04/23 09:51:41;;;;;;;5.27;3.90;;;12.50;99.90;;;;;;5093492;28;20433;-70
2021/04/23 09:54:19;;;;;;;9.30;4.47;;;12.80;99.90;;;;;;5093679;28;20495;-70
2021/04/23 09:56:45;;;;;;;4.50;3.83;;;12.60;99.90;;;;;;5093271;28;20182;-70
2021/04/23 09:59:16;;;;;;;9.27;4.90;;;12.20;99.90;;;;;;5093280;28;20401;-70
2021/04/23 10:01:56;;;;;;;8.73;4.20;;;12.40;99.90;;;;;;5093439;28;20255;-70
2021/04/23 10:04:28;;;;;;;6.80;5.10;;;12.80;99.90;;;;;;5093408;28;20424;-70
2021/04/23 10:07:11;;;;;;;5.43;3.60;;;13.20;99.90;;;;;;5093362;28;20386;-70
2021/04/23 10:09:53;;;;;;;16.27;5.93;;;13.60;99.90;;;;;;5093175;28;20544;-69
2021/04/23 10:12:51;;;;;;;7.83;4.43;;;13.90;99.90;;;;;;5093162;28;20498;-69
2021/04/23 10:15:31;;;;;;;13.63;4.80;;;13.30;99.90;;;;;;5093675;28;20425;-70
2021/04/23 10:18:10;;;;;;;7.90;4.57;;;14.30;99.90;;;;;;5093154;28;20398;-69
2021/04/23 10:20:38;;;;;;;7.80;4.43;;;14.20;99.90;;;;;;5093245;28;20395;-70
2021/04/23 10:23:05;;;;;;;13.53;6.77;;;14.20;99.90;;;;;;5093664;28;20402;-69
2021/04/23 10:25:33;;;;;;;77.73;52.33;;;14.40;99.90;;;;;;5093336;28;20492;-69
2021/04/23 10:28:00;;;;;;;7.20;5.00;;;14.50;99.90;;;;;;5093387;28;20409;-69
2021/04/23 10:30:30;;;;;;;8.10;4.57;;;14.20;99.90;;;;;;5093488;28;20402;-69
2021/04/23 10:33:02;;;;;;;9.10;4.70;;;14.10;99.90;;;;;;5093011;28;20552;-70
2021/04/23 10:35:29;;;;;;;10.43;3.97;;;14.50;99.90;;;;;;5093009;28;20496;-69
2021/04/23 10:38:07;;;;;;;9.03;4.40;;;15.00;99.90;;;;;;5093156;28;20768;-69
2021/04/23 10:40:33;;;;;;;6.57;3.90;;;14.90;99.90;;;;;;5093684;28;20939;-68
2021/04/23 10:43:09;;;;;;;6.20;4.17;;;14.10;99.90;;;;;;5092395;28;20470;-69
2021/04/23 10:45:39;;;;;;;8.57;4.40;;;14.80;99.90;;;;;;5093504;28;20403;-70
2021/04/23 10:48:14;;;;;;;6.60;3.93;;;15.00;99.90;;;;;;5093124;28;20397;-69
2021/04/23 10:50:46;;;;;;;7.40;4.20;;;14.00;99.90;;;;;;5093448;28;20416;-69
2021/04/23 10:53:17;;;;;;;7.17;3.97;;;14.50;99.90;;;;;;5094028;28;20503;-69
2021/04/23 10:55:53;;;;;;;8.10;3.73;;;14.80;99.90;;;;;;5093726;28;20405;-70
2021/04/23 10:58:27;;;;;;;14.57;4.90;;;15.60;99.90;;;;;;5093131;28;20830;-69
2021/04/23 11:01:01;;;;;;;7.93;3.83;;;15.80;99.90;;;;;;5093035;28;20409;-70
2021/04/23 11:03:37;;;;;;;9.80;3.90;;;16.30;99.90;;;;;;5093193;28;20440;-70
2021/04/23 11:06:04;;;;;;;8.13;4.20;;;15.70;99.90;;;;;;5093384;28;20967;-70
2021/04/23 11:08:36;;;;;;;8.87;3.80;;;14.00;99.90;;;;;;5092883;28;20835;-69
2021/04/23 11:11:13;;;;;;;6.57;4.30;;;14.80;99.90;;;;;;5093153;28;20438;-69
2021/04/23 11:13:46;;;;;;;9.37;4.00;;;14.80;99.90;;;;;;5092914;28;20464;-69
2021/04/23 11:16:22;;;;;;;9.57;4.50;;;15.20;99.90;;;;;;5092460;28;20440;-69
2021/04/23 11:18:53;;;;;;;7.80;4.10;;;14.50;99.90;;;;;;5092677;28;20487;-69
2021/04/23 11:21:31;;;;;;;7.67;4.17;;;15.40;99.90;;;;;;5093354;28;20412;-69
2021/04/23 11:24:10;;;;;;;10.37;3.93;;;15.30;99.90;;;;;;5093736;28;20469;-70
2021/04/23 11:27:06;;;;;;;6.57;4.00;;;16.20;99.90;;;;;;5092631;28;20412;-70
2021/04/23 11:29:39;;;;;;;7.87;5.10;;;16.50;99.90;;;;;;5092412;28;20877;-70
2021/04/23 11:32:06;;;;;;;7.47;3.90;;;15.50;99.90;;;;;;5092115;28;20447;-70
2021/04/23 11:34:55;;;;;;;17.63;4.57;;;15.90;99.90;;;;;;5091983;28;20421;-70
2021/04/23 11:37:26;;;;;;;9.70;5.00;;;16.40;99.90;;;;;;5092582;28;20443;-70
2021/04/23 11:40:17;;;;;;;5.47;3.70;;;16.00;99.90;;;;;;5092706;28;20692;-70
2021/04/23 11:42:49;;;;;;;6.30;3.60;;;15.70;99.90;;;;;;5081287;28;20430;-70
2021/04/23 11:45:36;;;;;;;10.73;4.73;;;16.20;99.90;;;;;;5092510;28;20428;-70
2021/04/23 11:48:04;;;;;;;11.10;4.67;;;15.60;99.90;;;;;;5092218;28;20382;-70
2021/04/23 11:50:31;;;;;;;8.20;4.20;;;16.10;99.90;;;;;;5092225;28;20460;-70
2021/04/23 11:53:19;;;;;;;7.10;3.50;;;15.80;99.90;;;;;;5092233;28;20984;-70
2021/04/23 11:55:49;;;;;;;8.53;5.07;;;15.30;99.90;;;;;;5095519;28;20448;-70
2021/04/23 11:58:21;;;;;;;8.23;4.53;;;16.50;99.90;;;;;;5096279;28;20378;-70
2021/04/23 12:01:00;;;;;;;12.00;4.80;;;17.00;99.90;;;;;;5094403;28;20425;-70
2021/04/23 12:03:26;;;;;;;9.63;4.40;;;17.50;99.90;;;;;;5096031;28;20417;-69
2021/04/23 12:05:54;;;;;;;6.10;4.00;;;17.80;99.90;;;;;;5096277;28;20416;-69
2021/04/23 12:08:25;;;;;;;10.57;4.80;;;16.90;99.90;;;;;;5095410;28;20176;-69
2021/04/23 12:10:52;;;;;;;8.37;5.13;;;17.30;99.90;;;;;;5095431;28;20882;-69
2021/04/23 12:13:23;;;;;;;7.30;4.90;;;17.80;99.90;;;;;;5095518;28;20465;-69
2021/04/23 12:15:58;;;;;;;11.03;4.90;;;17.50;99.90;;;;;;5095902;28;20383;-69
2021/04/23 12:18:24;;;;;;;12.63;5.40;;;16.90;99.90;;;;;;5095636;28;20390;-70
2021/04/23 12:20:52;;;;;;;7.90;4.43;;;18.00;99.90;;;;;;5095577;28;20416;-70
2021/04/23 12:23:19;;;;;;;7.80;5.03;;;18.00;99.90;;;;;;5095582;28;20510;-70
2021/04/23 12:26:00;;;;;;;7.33;4.40;;;17.90;99.90;;;;;;5095490;28;20410;-70
2021/04/23 12:28:48;;;;;;;11.00;5.83;;;18.90;99.90;;;;;;5095397;28;20506;-69
2021/04/23 12:31:22;;;;;;;6.77;5.13;;;19.10;99.90;;;;;;5095263;28;20410;-70
2021/04/23 12:33:55;;;;;;;10.20;5.10;;;18.00;99.90;;;;;;5095018;28;20460;-70
2021/04/23 12:36:27;;;;;;;8.13;5.50;;;18.00;99.90;;;;;;5095342;28;20378;-70
2021/04/23 12:39:03;;;;;;;8.60;5.40;;;18.00;99.90;;;;;;5093751;28;20419;-70
2021/04/23 12:41:33;;;;;;;9.20;5.20;;;18.10;99.90;;;;;;5095068;28;20898;-70
2021/04/23 12:44:03;;;;;;;10.70;5.43;;;17.80;99.90;;;;;;5094800;28;20489;-70
2021/04/23 12:46:47;;;;;;;6.90;4.83;;;17.80;99.90;;;;;;5095186;28;20440;-70
2021/04/23 12:49:22;;;;;;;8.27;5.27;;;18.10;99.90;;;;;;5094751;28;20431;-70
2021/04/23 12:52:07;;;;;;;10.77;5.00;;;18.60;99.90;;;;;;5094492;28;20528;-70
2021/04/23 12:54:39;;;;;;;10.13;5.03;;;18.80;99.90;;;;;;5094702;28;20437;-70
2021/04/23 12:57:07;;;;;;;8.10;5.20;;;19.10;99.90;;;;;;5094990;28;20933;-69
2021/04/23 12:59:40;;;;;;;8.53;5.13;;;19.00;99.90;;;;;;5094507;28;20406;-70
2021/04/23 13:02:12;;;;;;;9.17;5.20;;;19.60;99.90;;;;;;5094602;28;20729;-69